sensor_id;sensor_type;location;lat;lon;timestamp;pressure;altitude;pressure_sealevel;temperature
74485;BMP280;62942;52.462;10.846;2023-07-16T00:00:27;100110;;;
74485;BMP280;62942;52.462;10.846;2023-07-16T00:01:37;100120;;;
74485;BMP280;62942;52.462;10.846;2023-07-16T00:02:37;100120;;;
74485;BMP280;62942;52.462;10.846;2023-07-16T00:03:47;100120;;;
74485;BMP280;62942;52.462;10.846;2023-07-16T00:04:47;100120;;;
74485;BMP280;62942;52.462;10.846;2023-07-16T00:05:56;100120;;;
74485;BMP280;62942;52.462;10.846;2023-07-16T00:06:56;100120;;;
74485;BMP280;62942;52.462;10.846;2023-07-16T00:08:07;100120;;;
74485;BMP280;62942;52.462;10.846;2023-07-16T00:09:16;100120;;;
74485;BMP280;62942;52.462;10.846;2023-07-16T00:10:17;100120;;;
74485;BMP280;62942;52.462;10.846;2023-07-16T00:11:26;100120;;;
74485;BMP280;62942;52.462;10.846;2023-07-16T00:12:26;100120;;;
74485;BMP280;62942;52.462;10.846;2023-07-16T00:13:26;100120;;;
74485;BMP280;62942;52.462;10.846;2023-07-16T00:14:37;100120;;;
74485;BMP280;62942;52.462;10.846;2023-07-16T00:15:46;100130;;;
74485;BMP280;62942;52.462;10.846;2023-07-16T00:16:57;100120;;;
74485;BMP280;62942;52.462;10.846;2023-07-16T00:18:06;100130;;;
74485;BMP280;62942;52.462;10.846;2023-07-16T00:19:07;100130;;;
74485;BMP280;62942;52.462;10.846;2023-07-16T00:20:07;100130;;;
74485;BMP280;62942;52.462;10.846;2023-07-16T00:21:16;100120;;;
74485;BMP280;62942;52.462;10.846;2023-07-16T00:22:26;100120;;;
74485;BMP280;62942;52.462;10.846;2023-07-16T00:23:27;100120;;;
74485;BMP280;62942;52.462;10.846;2023-07-16T00:24:37;100110;;;
74485;BMP280;62942;52.462;10.846;2023-07-16T00:25:36;100120;;;
74485;BMP280;62942;52.462;10.846;2023-07-16T00:26:46;100110;;;
74485;BMP280;62942;52.462;10.846;2023-07-16T00:27:57;100110;;;
74485;BMP280;62942;52.462;10.846;2023-07-16T00:29:07;100100;;;
74485;BMP280;62942;52.462;10.846;2023-07-16T00:30:07;100100;;;
74485;BMP280;62942;52.462;10.846;2023-07-16T00:31:16;100100;;;
74485;BMP280;62942;52.462;10.846;2023-07-16T00:32:26;100100;;;
74485;BMP280;62942;52.462;10.846;2023-07-16T00:33:36;100110;;;
74485;BMP280;62942;52.462;10.846;2023-07-16T00:34:46;100120;;;
74485;BMP280;62942;52.462;10.846;2023-07-16T00:35:56;100130;;;
74485;BMP280;62942;52.462;10.846;2023-07-16T00:37:06;100130;;;
74485;BMP280;62942;52.462;10.846;2023-07-16T00:38:17;100140;;;
74485;BMP280;62942;52.462;10.846;2023-07-16T00:39:16;100140;;;
74485;BMP280;62942;52.462;10.846;2023-07-16T00:40:17;100150;;;
74485;BMP280;62942;52.462;10.846;2023-07-16T00:41:27;100160;;;
74485;BMP280;62942;52.462;10.846;2023-07-16T00:42:36;100160;;;
74485;BMP280;62942;52.462;10.846;2023-07-16T00:43:46;100170;;;
74485;BMP280;62942;52.462;10.846;2023-07-16T00:44:46;100170;;;
74485;BMP280;62942;52.462;10.846;2023-07-16T00:45:56;100180;;;
74485;BMP280;62942;52.462;10.846;2023-07-16T00:47:06;100190;;;
74485;BMP280;62942;52.462;10.846;2023-07-16T00:48:16;100180;;;
74485;BMP280;62942;52.462;10.846;2023-07-16T00:49:16;100190;;;
74485;BMP280;62942;52.462;10.846;2023-07-16T00:50:26;100190;;;
74485;BMP280;62942;52.462;10.846;2023-07-16T00:51:37;100190;;;
74485;BMP280;62942;52.462;10.846;2023-07-16T00:52:37;100200;;;
74485;BMP280;62942;52.462;10.846;2023-07-16T00:53:46;100200;;;
74485;BMP280;62942;52.462;10.846;2023-07-16T00:54:56;100210;;;
74485;BMP280;62942;52.462;10.846;2023-07-16T00:56:07;100210;;;
74485;BMP280;62942;52.462;10.846;2023-07-16T00:57:16;100210;;;
74485;BMP280;62942;52.462;10.846;2023-07-16T00:58:26;100210;;;
74485;BMP280;62942;52.462;10.846;2023-07-16T00:59:26;100210;;;
74485;BMP280;62942;52.462;10.846;2023-07-16T01:00:37;100210;;;
74485;BMP280;62942;52.462;10.846;2023-07-16T01:01:37;100200;;;
74485;BMP280;62942;52.462;10.846;2023-07-16T01:02:46;100200;;;
74485;BMP280;62942;52.462;10.846;2023-07-16T01:03:46;100200;;;
74485;BMP280;62942;52.462;10.846;2023-07-16T01:04:56;100190;;;
74485;BMP280;62942;52.462;10.846;2023-07-16T01:06:09;100190;;;
74485;BMP280;62942;52.462;10.846;2023-07-16T01:07:16;100190;;;
74485;BMP280;62942;52.462;10.846;2023-07-16T01:08:18;100190;;;
74485;BMP280;62942;52.462;10.846;2023-07-16T01:09:17;100180;;;
74485;BMP280;62942;52.462;10.846;2023-07-16T01:10:27;100180;;;
74485;BMP280;62942;52.462;10.846;2023-07-16T01:11:36;100180;;;
74485;BMP280;62942;52.462;10.846;2023-07-16T01:12:47;100180;;;
74485;BMP280;62942;52.462;10.846;2023-07-16T01:13:57;100180;;;
74485;BMP280;62942;52.462;10.846;2023-07-16T01:15:07;100180;;;
74485;BMP280;62942;52.462;10.846;2023-07-16T01:16:18;100190;;;
74485;BMP280;62942;52.462;10.846;2023-07-16T01:17:17;100190;;;
74485;BMP280;62942;52.462;10.846;2023-07-16T01:18:26;100200;;;
74485;BMP280;62942;52.462;10.846;2023-07-16T01:19:36;100210;;;
74485;BMP280;62942;52.462;10.846;2023-07-16T01:20:36;100200;;;
74485;BMP280;62942;52.462;10.846;2023-07-16T01:21:38;100200;;;
74485;BMP280;62942;52.462;10.846;2023-07-16T01:22:59;100190;;;
74485;BMP280;62942;52.462;10.846;2023-07-16T01:23:39;100180;;;
74485;BMP280;62942;52.462;10.846;2023-07-16T01:24:59;100180;;;
74485;BMP280;62942;52.462;10.846;2023-07-16T01:26:02;100170;;;
74485;BMP280;62942;52.462;10.846;2023-07-16T01:27:16;100160;;;
74485;BMP280;62942;52.462;10.846;2023-07-16T01:28:21;100150;;;
74485;BMP280;62942;52.462;10.846;2023-07-16T01:29:33;100140;;;
74485;BMP280;62942;52.462;10.846;2023-07-16T01:30:26;100130;;;
74485;BMP280;62942;52.462;10.846;2023-07-16T01:31:26;100120;;;
74485;BMP280;62942;52.462;10.846;2023-07-16T01:32:37;100130;;;
74485;BMP280;62942;52.462;10.846;2023-07-16T01:33:46;100130;;;
74485;BMP280;62942;52.462;10.846;2023-07-16T01:34:46;100140;;;
74485;BMP280;62942;52.462;10.846;2023-07-16T01:35:56;100160;;;
74485;BMP280;62942;52.462;10.846;2023-07-16T01:37:06;100180;;;
74485;BMP280;62942;52.462;10.846;2023-07-16T01:38:07;100200;;;
74485;BMP280;62942;52.462;10.846;2023-07-16T01:39:16;100210;;;
74485;BMP280;62942;52.462;10.846;2023-07-16T01:40:16;100200;;;
74485;BMP280;62942;52.462;10.846;2023-07-16T01:41:26;100200;;;
74485;BMP280;62942;52.462;10.846;2023-07-16T01:42:36;100200;;;
74485;BMP280;62942;52.462;10.846;2023-07-16T01:43:36;100200;;;
74485;BMP280;62942;52.462;10.846;2023-07-16T01:44:46;100200;;;
74485;BMP280;62942;52.462;10.846;2023-07-16T01:45:46;100190;;;
74485;BMP280;62942;52.462;10.846;2023-07-16T01:47:03;100200;;;
74485;BMP280;62942;52.462;10.846;2023-07-16T01:48:14;100210;;;
74485;BMP280;62942;52.462;10.846;2023-07-16T01:49:06;100210;;;
74485;BMP280;62942;52.462;10.846;2023-07-16T01:50:07;100200;;;
74485;BMP280;62942;52.462;10.846;2023-07-16T01:51:06;100190;;;
74485;BMP280;62942;52.462;10.846;2023-07-16T01:52:16;100170;;;
74485;BMP280;62942;52.462;10.846;2023-07-16T01:53:26;100170;;;
74485;BMP280;62942;52.462;10.846;2023-07-16T01:54:36;100170;;;
74485;BMP280;62942;52.462;10.846;2023-07-16T01:55:36;100170;;;
74485;BMP280;62942;52.462;10.846;2023-07-16T01:56:46;100170;;;
74485;BMP280;62942;52.462;10.846;2023-07-16T01:57:46;100180;;;
74485;BMP280;62942;52.462;10.846;2023-07-16T01:58:56;100180;;;
74485;BMP280;62942;52.462;10.846;2023-07-16T01:59:56;100180;;;
74485;BMP280;62942;52.462;10.846;2023-07-16T02:01:06;100180;;;
74485;BMP280;62942;52.462;10.846;2023-07-16T02:02:06;100190;;;
74485;BMP280;62942;52.462;10.846;2023-07-16T02:03:16;100200;;;
74485;BMP280;62942;52.462;10.846;2023-07-16T02:04:16;100200;;;
74485;BMP280;62942;52.462;10.846;2023-07-16T02:05:26;100200;;;
74485;BMP280;62942;52.462;10.846;2023-07-16T02:06:26;100200;;;
74485;BMP280;62942;52.462;10.846;2023-07-16T02:07:36;100190;;;
74485;BMP280;62942;52.462;10.846;2023-07-16T02:08:46;100170;;;
74485;BMP280;62942;52.462;10.846;2023-07-16T02:09:46;100180;;;
74485;BMP280;62942;52.462;10.846;2023-07-16T02:10:56;100180;;;
74485;BMP280;62942;52.462;10.846;2023-07-16T02:12:06;100180;;;
74485;BMP280;62942;52.462;10.846;2023-07-16T02:13:06;100180;;;
74485;BMP280;62942;52.462;10.846;2023-07-16T02:14:16;100190;;;
74485;BMP280;62942;52.462;10.846;2023-07-16T02:15:26;100190;;;
74485;BMP280;62942;52.462;10.846;2023-07-16T02:16:36;100180;;;
74485;BMP280;62942;52.462;10.846;2023-07-16T02:17:36;100160;;;
74485;BMP280;62942;52.462;10.846;2023-07-16T02:18:46;100130;;;
74485;BMP280;62942;52.462;10.846;2023-07-16T02:19:56;100120;;;
74485;BMP280;62942;52.462;10.846;2023-07-16T02:20:56;100100;;;
74485;BMP280;62942;52.462;10.846;2023-07-16T02:22:07;100110;;;
74485;BMP280;62942;52.462;10.846;2023-07-16T02:23:16;100120;;;
74485;BMP280;62942;52.462;10.846;2023-07-16T02:24:26;100130;;;
74485;BMP280;62942;52.462;10.846;2023-07-16T02:25:26;100150;;;
74485;BMP280;62942;52.462;10.846;2023-07-16T02:26:26;100150;;;
74485;BMP280;62942;52.462;10.846;2023-07-16T02:27:36;100160;;;
74485;BMP280;62942;52.462;10.846;2023-07-16T02:28:36;100170;;;
74485;BMP280;62942;52.462;10.846;2023-07-16T02:29:46;100200;;;
74485;BMP280;62942;52.462;10.846;2023-07-16T02:30:57;100210;;;
74485;BMP280;62942;52.462;10.846;2023-07-16T02:31:56;100210;;;
74485;BMP280;62942;52.462;10.846;2023-07-16T02:32:56;100190;;;
74485;BMP280;62942;52.462;10.846;2023-07-16T02:34:06;100190;;;
74485;BMP280;62942;52.462;10.846;2023-07-16T02:35:06;100190;;;
74485;BMP280;62942;52.462;10.846;2023-07-16T02:36:16;100190;;;
74485;BMP280;62942;52.462;10.846;2023-07-16T02:37:26;100210;;;
74485;BMP280;62942;52.462;10.846;2023-07-16T02:38:26;100220;;;
74485;BMP280;62942;52.462;10.846;2023-07-16T02:39:38;100230;;;
74485;BMP280;62942;52.462;10.846;2023-07-16T02:40:47;100230;;;
74485;BMP280;62942;52.462;10.846;2023-07-16T02:41:46;100230;;;
74485;BMP280;62942;52.462;10.846;2023-07-16T02:42:56;100240;;;
74485;BMP280;62942;52.462;10.846;2023-07-16T02:44:00;100250;;;
74485;BMP280;62942;52.462;10.846;2023-07-16T02:45:07;100240;;;
74485;BMP280;62942;52.462;10.846;2023-07-16T02:46:06;100240;;;
74485;BMP280;62942;52.462;10.846;2023-07-16T02:47:16;100240;;;
74485;BMP280;62942;52.462;10.846;2023-07-16T02:48:28;100240;;;
74485;BMP280;62942;52.462;10.846;2023-07-16T02:49:26;100230;;;
74485;BMP280;62942;52.462;10.846;2023-07-16T02:50:36;100220;;;
74485;BMP280;62942;52.462;10.846;2023-07-16T02:51:36;100220;;;
74485;BMP280;62942;52.462;10.846;2023-07-16T02:52:46;100210;;;
74485;BMP280;62942;52.462;10.846;2023-07-16T02:53:46;100210;;;
74485;BMP280;62942;52.462;10.846;2023-07-16T02:54:56;100220;;;
74485;BMP280;62942;52.462;10.846;2023-07-16T02:55:56;100210;;;
74485;BMP280;62942;52.462;10.846;2023-07-16T02:57:06;100220;;;
74485;BMP280;62942;52.462;10.846;2023-07-16T02:58:16;100220;;;
74485;BMP280;62942;52.462;10.846;2023-07-16T02:59:16;100230;;;
74485;BMP280;62942;52.462;10.846;2023-07-16T03:00:26;100230;;;
74485;BMP280;62942;52.462;10.846;2023-07-16T03:01:36;100210;;;
74485;BMP280;62942;52.462;10.846;2023-07-16T03:02:36;100200;;;
74485;BMP280;62942;52.462;10.846;2023-07-16T03:03:46;100210;;;
74485;BMP280;62942;52.462;10.846;2023-07-16T03:04:46;100220;;;
74485;BMP280;62942;52.462;10.846;2023-07-16T03:05:56;100230;;;
74485;BMP280;62942;52.462;10.846;2023-07-16T03:07:06;100230;;;
74485;BMP280;62942;52.462;10.846;2023-07-16T03:08:06;100230;;;
74485;BMP280;62942;52.462;10.846;2023-07-16T03:09:16;100230;;;
74485;BMP280;62942;52.462;10.846;2023-07-16T03:10:16;100210;;;
74485;BMP280;62942;52.462;10.846;2023-07-16T03:11:26;100220;;;
74485;BMP280;62942;52.462;10.846;2023-07-16T03:12:26;100220;;;
74485;BMP280;62942;52.462;10.846;2023-07-16T03:13:36;100230;;;
74485;BMP280;62942;52.462;10.846;2023-07-16T03:14:46;100230;;;
74485;BMP280;62942;52.462;10.846;2023-07-16T03:15:46;100230;;;
74485;BMP280;62942;52.462;10.846;2023-07-16T03:16:56;100220;;;
74485;BMP280;62942;52.462;10.846;2023-07-16T03:18:06;100220;;;
74485;BMP280;62942;52.462;10.846;2023-07-16T03:19:16;100240;;;
74485;BMP280;62942;52.462;10.846;2023-07-16T03:20:26;100250;;;
74485;BMP280;62942;52.462;10.846;2023-07-16T03:21:26;100250;;;
74485;BMP280;62942;52.462;10.846;2023-07-16T03:22:36;100250;;;
74485;BMP280;62942;52.462;10.846;2023-07-16T03:23:46;100250;;;
74485;BMP280;62942;52.462;10.846;2023-07-16T03:24:46;100250;;;
74485;BMP280;62942;52.462;10.846;2023-07-16T03:25:46;100250;;;
74485;BMP280;62942;52.462;10.846;2023-07-16T03:26:56;100250;;;
74485;BMP280;62942;52.462;10.846;2023-07-16T03:27:56;100250;;;
74485;BMP280;62942;52.462;10.846;2023-07-16T03:29:06;100250;;;
74485;BMP280;62942;52.462;10.846;2023-07-16T03:30:16;100260;;;
74485;BMP280;62942;52.462;10.846;2023-07-16T03:31:16;100260;;;
74485;BMP280;62942;52.462;10.846;2023-07-16T03:32:16;100260;;;
74485;BMP280;62942;52.462;10.846;2023-07-16T03:33:26;100260;;;
74485;BMP280;62942;52.462;10.846;2023-07-16T03:34:26;100260;;;
74485;BMP280;62942;52.462;10.846;2023-07-16T03:35:36;100260;;;
74485;BMP280;62942;52.462;10.846;2023-07-16T03:36:46;100270;;;
74485;BMP280;62942;52.462;10.846;2023-07-16T03:37:46;100270;;;
74485;BMP280;62942;52.462;10.846;2023-07-16T03:38:56;100280;;;
74485;BMP280;62942;52.462;10.846;2023-07-16T03:40:12;100280;;;
74485;BMP280;62942;52.462;10.846;2023-07-16T03:41:16;100270;;;
74485;BMP280;62942;52.462;10.846;2023-07-16T03:42:26;100280;;;
74485;BMP280;62942;52.462;10.846;2023-07-16T03:43:36;100280;;;
74485;BMP280;62942;52.462;10.846;2023-07-16T03:44:46;100280;;;
74485;BMP280;62942;52.462;10.846;2023-07-16T03:45:46;100280;;;
74485;BMP280;62942;52.462;10.846;2023-07-16T03:46:56;100280;;;
74485;BMP280;62942;52.462;10.846;2023-07-16T03:47:56;100280;;;
74485;BMP280;62942;52.462;10.846;2023-07-16T03:49:06;100270;;;
74485;BMP280;62942;52.462;10.846;2023-07-16T03:50:16;100280;;;
74485;BMP280;62942;52.462;10.846;2023-07-16T03:51:16;100280;;;
74485;BMP280;62942;52.462;10.846;2023-07-16T03:52:26;100290;;;
74485;BMP280;62942;52.462;10.846;2023-07-16T03:53:36;100290;;;
74485;BMP280;62942;52.462;10.846;2023-07-16T03:54:36;100290;;;
74485;BMP280;62942;52.462;10.846;2023-07-16T03:55:46;100290;;;
74485;BMP280;62942;52.462;10.846;2023-07-16T03:56:56;100290;;;
74485;BMP280;62942;52.462;10.846;2023-07-16T03:57:56;100290;;;
74485;BMP280;62942;52.462;10.846;2023-07-16T03:58:56;100300;;;
74485;BMP280;62942;52.462;10.846;2023-07-16T04:00:06;100310;;;
74485;BMP280;62942;52.462;10.846;2023-07-16T04:01:06;100310;;;
74485;BMP280;62942;52.462;10.846;2023-07-16T04:02:16;100310;;;
74485;BMP280;62942;52.462;10.846;2023-07-16T04:03:26;100300;;;
74485;BMP280;62942;52.462;10.846;2023-07-16T04:04:26;100300;;;
74485;BMP280;62942;52.462;10.846;2023-07-16T04:05:26;100310;;;
74485;BMP280;62942;52.462;10.846;2023-07-16T04:06:36;100310;;;
74485;BMP280;62942;52.462;10.846;2023-07-16T04:07:36;100310;;;
74485;BMP280;62942;52.462;10.846;2023-07-16T04:08:46;100310;;;
74485;BMP280;62942;52.462;10.846;2023-07-16T04:09:56;100300;;;
74485;BMP280;62942;52.462;10.846;2023-07-16T04:11:06;100310;;;
74485;BMP280;62942;52.462;10.846;2023-07-16T04:12:06;100300;;;
74485;BMP280;62942;52.462;10.846;2023-07-16T04:13:16;100310;;;
74485;BMP280;62942;52.462;10.846;2023-07-16T04:14:26;100310;;;
74485;BMP280;62942;52.462;10.846;2023-07-16T04:15:36;100310;;;
74485;BMP280;62942;52.462;10.846;2023-07-16T04:16:36;100310;;;
74485;BMP280;62942;52.462;10.846;2023-07-16T04:17:46;100310;;;
74485;BMP280;62942;52.462;10.846;2023-07-16T04:18:46;100310;;;
74485;BMP280;62942;52.462;10.846;2023-07-16T04:19:46;100310;;;
74485;BMP280;62942;52.462;10.846;2023-07-16T04:20:56;100310;;;
74485;BMP280;62942;52.462;10.846;2023-07-16T04:21:56;100310;;;
74485;BMP280;62942;52.462;10.846;2023-07-16T04:22:56;100310;;;
74485;BMP280;62942;52.462;10.846;2023-07-16T04:24:06;100320;;;
74485;BMP280;62942;52.462;10.846;2023-07-16T04:25:06;100320;;;
74485;BMP280;62942;52.462;10.846;2023-07-16T04:26:06;100320;;;
74485;BMP280;62942;52.462;10.846;2023-07-16T04:27:16;100320;;;
74485;BMP280;62942;52.462;10.846;2023-07-16T04:28:16;100320;;;
74485;BMP280;62942;52.462;10.846;2023-07-16T04:29:26;100320;;;
74485;BMP280;62942;52.462;10.846;2023-07-16T04:30:26;100320;;;
74485;BMP280;62942;52.462;10.846;2023-07-16T04:31:36;100330;;;
74485;BMP280;62942;52.462;10.846;2023-07-16T04:32:36;100330;;;
74485;BMP280;62942;52.462;10.846;2023-07-16T04:33:46;100330;;;
74485;BMP280;62942;52.462;10.846;2023-07-16T04:34:56;100330;;;
74485;BMP280;62942;52.462;10.846;2023-07-16T04:35:56;100330;;;
74485;BMP280;62942;52.462;10.846;2023-07-16T04:37:06;100330;;;
74485;BMP280;62942;52.462;10.846;2023-07-16T04:38:16;100340;;;
74485;BMP280;62942;52.462;10.846;2023-07-16T04:39:16;100330;;;
74485;BMP280;62942;52.462;10.846;2023-07-16T04:40:16;100330;;;
74485;BMP280;62942;52.462;10.846;2023-07-16T04:41:26;100330;;;
74485;BMP280;62942;52.462;10.846;2023-07-16T04:42:26;100330;;;
74485;BMP280;62942;52.462;10.846;2023-07-16T04:43:36;100330;;;
74485;BMP280;62942;52.462;10.846;2023-07-16T04:44:36;100330;;;
74485;BMP280;62942;52.462;10.846;2023-07-16T04:45:46;100330;;;
74485;BMP280;62942;52.462;10.846;2023-07-16T04:46:46;100330;;;
74485;BMP280;62942;52.462;10.846;2023-07-16T04:47:56;100340;;;
74485;BMP280;62942;52.462;10.846;2023-07-16T04:48:56;100340;;;
74485;BMP280;62942;52.462;10.846;2023-07-16T04:50:06;100330;;;
74485;BMP280;62942;52.462;10.846;2023-07-16T04:51:06;100340;;;
74485;BMP280;62942;52.462;10.846;2023-07-16T04:52:16;100340;;;
74485;BMP280;62942;52.462;10.846;2023-07-16T04:53:16;100340;;;
74485;BMP280;62942;52.462;10.846;2023-07-16T04:54:16;100350;;;
74485;BMP280;62942;52.462;10.846;2023-07-16T04:55:26;100350;;;
74485;BMP280;62942;52.462;10.846;2023-07-16T04:56:26;100350;;;
74485;BMP280;62942;52.462;10.846;2023-07-16T04:57:26;100350;;;
74485;BMP280;62942;52.462;10.846;2023-07-16T04:58:36;100360;;;
74485;BMP280;62942;52.462;10.846;2023-07-16T04:59:46;100360;;;
74485;BMP280;62942;52.462;10.846;2023-07-16T05:00:56;100360;;;
74485;BMP280;62942;52.462;10.846;2023-07-16T05:01:56;100360;;;
74485;BMP280;62942;52.462;10.846;2023-07-16T05:02:56;100370;;;
74485;BMP280;62942;52.462;10.846;2023-07-16T05:04:06;100370;;;
74485;BMP280;62942;52.462;10.846;2023-07-16T05:05:06;100370;;;
74485;BMP280;62942;52.462;10.846;2023-07-16T05:06:06;100370;;;
74485;BMP280;62942;52.462;10.846;2023-07-16T05:07:06;100370;;;
74485;BMP280;62942;52.462;10.846;2023-07-16T05:08:16;100370;;;
74485;BMP280;62942;52.462;10.846;2023-07-16T05:09:16;100370;;;
74485;BMP280;62942;52.462;10.846;2023-07-16T05:10:26;100370;;;
74485;BMP280;62942;52.462;10.846;2023-07-16T05:11:36;100370;;;
74485;BMP280;62942;52.462;10.846;2023-07-16T05:12:36;100370;;;
74485;BMP280;62942;52.462;10.846;2023-07-16T05:13:36;100380;;;
74485;BMP280;62942;52.462;10.846;2023-07-16T05:14:46;100370;;;
74485;BMP280;62942;52.462;10.846;2023-07-16T05:15:56;100380;;;
74485;BMP280;62942;52.462;10.846;2023-07-16T05:16:56;100370;;;
74485;BMP280;62942;52.462;10.846;2023-07-16T05:18:06;100380;;;
74485;BMP280;62942;52.462;10.846;2023-07-16T05:19:16;100380;;;
74485;BMP280;62942;52.462;10.846;2023-07-16T05:20:16;100380;;;
74485;BMP280;62942;52.462;10.846;2023-07-16T05:21:26;100380;;;
74485;BMP280;62942;52.462;10.846;2023-07-16T05:22:36;100380;;;
74485;BMP280;62942;52.462;10.846;2023-07-16T05:23:46;100380;;;
74485;BMP280;62942;52.462;10.846;2023-07-16T05:24:56;100380;;;
74485;BMP280;62942;52.462;10.846;2023-07-16T05:25:56;100380;;;
74485;BMP280;62942;52.462;10.846;2023-07-16T05:27:06;100380;;;
74485;BMP280;62942;52.462;10.846;2023-07-16T05:28:17;100380;;;
74485;BMP280;62942;52.462;10.846;2023-07-16T05:29:26;100380;;;
74485;BMP280;62942;52.462;10.846;2023-07-16T05:30:36;100380;;;
74485;BMP280;62942;52.462;10.846;2023-07-16T05:31:46;100390;;;
74485;BMP280;62942;52.462;10.846;2023-07-16T05:32:56;100390;;;
74485;BMP280;62942;52.462;10.846;2023-07-16T05:33:56;100390;;;
74485;BMP280;62942;52.462;10.846;2023-07-16T05:35:06;100390;;;
74485;BMP280;62942;52.462;10.846;2023-07-16T05:36:06;100390;;;
74485;BMP280;62942;52.462;10.846;2023-07-16T05:37:06;100390;;;
74485;BMP280;62942;52.462;10.846;2023-07-16T05:38:16;100390;;;
74485;BMP280;62942;52.462;10.846;2023-07-16T05:39:26;100390;;;
74485;BMP280;62942;52.462;10.846;2023-07-16T05:40:36;100390;;;
74485;BMP280;62942;52.462;10.846;2023-07-16T05:41:36;100390;;;
74485;BMP280;62942;52.462;10.846;2023-07-16T05:42:46;100400;;;
74485;BMP280;62942;52.462;10.846;2023-07-16T05:43:46;100390;;;
74485;BMP280;62942;52.462;10.846;2023-07-16T05:44:56;100400;;;
74485;BMP280;62942;52.462;10.846;2023-07-16T05:46:06;100400;;;
74485;BMP280;62942;52.462;10.846;2023-07-16T05:47:06;100400;;;
74485;BMP280;62942;52.462;10.846;2023-07-16T05:48:06;100400;;;
74485;BMP280;62942;52.462;10.846;2023-07-16T05:49:16;100390;;;
74485;BMP280;62942;52.462;10.846;2023-07-16T05:50:26;100390;;;
74485;BMP280;62942;52.462;10.846;2023-07-16T05:51:26;100390;;;
74485;BMP280;62942;52.462;10.846;2023-07-16T05:52:36;100390;;;
74485;BMP280;62942;52.462;10.846;2023-07-16T05:53:36;100400;;;
74485;BMP280;62942;52.462;10.846;2023-07-16T05:54:36;100400;;;
74485;BMP280;62942;52.462;10.846;2023-07-16T05:55:36;100390;;;
74485;BMP280;62942;52.462;10.846;2023-07-16T05:56:46;100390;;;
74485;BMP280;62942;52.462;10.846;2023-07-16T05:57:46;100390;;;
74485;BMP280;62942;52.462;10.846;2023-07-16T05:58:56;100390;;;
74485;BMP280;62942;52.462;10.846;2023-07-16T05:59:56;100410;;;
74485;BMP280;62942;52.462;10.846;2023-07-16T06:00:56;100390;;;
74485;BMP280;62942;52.462;10.846;2023-07-16T06:02:06;100410;;;
74485;BMP280;62942;52.462;10.846;2023-07-16T06:03:16;100410;;;
74485;BMP280;62942;52.462;10.846;2023-07-16T06:04:16;100410;;;
74485;BMP280;62942;52.462;10.846;2023-07-16T06:05:16;100410;;;
74485;BMP280;62942;52.462;10.846;2023-07-16T06:06:27;100420;;;
74485;BMP280;62942;52.462;10.846;2023-07-16T06:07:36;100420;;;
74485;BMP280;62942;52.462;10.846;2023-07-16T06:08:46;100410;;;
74485;BMP280;62942;52.462;10.846;2023-07-16T06:09:56;100420;;;
74485;BMP280;62942;52.462;10.846;2023-07-16T06:11:07;100420;;;
74485;BMP280;62942;52.462;10.846;2023-07-16T06:12:16;100420;;;
74485;BMP280;62942;52.462;10.846;2023-07-16T06:13:26;100430;;;
74485;BMP280;62942;52.462;10.846;2023-07-16T06:14:36;100420;;;
74485;BMP280;62942;52.462;10.846;2023-07-16T06:15:46;100430;;;
74485;BMP280;62942;52.462;10.846;2023-07-16T06:16:56;100420;;;
74485;BMP280;62942;52.462;10.846;2023-07-16T06:18:06;100430;;;
74485;BMP280;62942;52.462;10.846;2023-07-16T06:19:06;100430;;;
74485;BMP280;62942;52.462;10.846;2023-07-16T06:20:06;100430;;;
74485;BMP280;62942;52.462;10.846;2023-07-16T06:21:06;100430;;;
74485;BMP280;62942;52.462;10.846;2023-07-16T06:22:16;100430;;;
74485;BMP280;62942;52.462;10.846;2023-07-16T06:23:16;100440;;;
74485;BMP280;62942;52.462;10.846;2023-07-16T06:24:26;100440;;;
74485;BMP280;62942;52.462;10.846;2023-07-16T06:25:36;100440;;;
74485;BMP280;62942;52.462;10.846;2023-07-16T06:26:36;100430;;;
74485;BMP280;62942;52.462;10.846;2023-07-16T06:27:47;100440;;;
74485;BMP280;62942;52.462;10.846;2023-07-16T06:28:46;100430;;;
74485;BMP280;62942;52.462;10.846;2023-07-16T06:29:46;100430;;;
74485;BMP280;62942;52.462;10.846;2023-07-16T06:30:56;100440;;;
74485;BMP280;62942;52.462;10.846;2023-07-16T06:31:56;100440;;;
74485;BMP280;62942;52.462;10.846;2023-07-16T06:32:56;100440;;;
74485;BMP280;62942;52.462;10.846;2023-07-16T06:34:06;100440;;;
74485;BMP280;62942;52.462;10.846;2023-07-16T06:35:07;100440;;;
74485;BMP280;62942;52.462;10.846;2023-07-16T06:36:16;100440;;;
74485;BMP280;62942;52.462;10.846;2023-07-16T06:37:26;100440;;;
74485;BMP280;62942;52.462;10.846;2023-07-16T06:38:26;100440;;;
74485;BMP280;62942;52.462;10.846;2023-07-16T06:39:26;100440;;;
74485;BMP280;62942;52.462;10.846;2023-07-16T06:40:36;100440;;;
74485;BMP280;62942;52.462;10.846;2023-07-16T06:41:46;100440;;;
74485;BMP280;62942;52.462;10.846;2023-07-16T06:42:46;100430;;;
74485;BMP280;62942;52.462;10.846;2023-07-16T06:43:56;100440;;;
74485;BMP280;62942;52.462;10.846;2023-07-16T06:45:06;100440;;;
74485;BMP280;62942;52.462;10.846;2023-07-16T06:46:06;100440;;;
74485;BMP280;62942;52.462;10.846;2023-07-16T06:47:06;100450;;;
74485;BMP280;62942;52.462;10.846;2023-07-16T06:48:16;100450;;;
74485;BMP280;62942;52.462;10.846;2023-07-16T06:49:16;100450;;;
74485;BMP280;62942;52.462;10.846;2023-07-16T06:50:26;100450;;;
74485;BMP280;62942;52.462;10.846;2023-07-16T06:51:36;100450;;;
74485;BMP280;62942;52.462;10.846;2023-07-16T06:52:46;100450;;;
74485;BMP280;62942;52.462;10.846;2023-07-16T06:53:56;100450;;;
74485;BMP280;62942;52.462;10.846;2023-07-16T06:54:56;100450;;;
74485;BMP280;62942;52.462;10.846;2023-07-16T06:56:06;100460;;;